Time;durP1;ratioP1;P1;durP2;ratioP2;P2;SDS_P1;SDS_P2;PMS_P1;PMS_P2;Temp;Humidity;BMP_temperature;BMP_pressure;BME280_temperature;BME280_humidity;BME280_pressure;Samples;Min_cycle;Max_cycle;Signal;HPM_P1;HPM_P2
2022/11/08 00:01:41;;;;;;;5.68;2.88;;;12.10;99.90;;;;;;4976757;28;20098;-67
2022/11/08 00:04:09;;;;;;;10.93;2.88;;;12.10;99.90;;;;;;4976294;28;20026;-67
2022/11/08 00:14:48;;;;;;;9.05;3.53;;;11.80;99.90;;;;;;4976473;28;20105;-67
2022/11/08 00:17:18;;;;;;;10.68;2.92;;;11.70;99.90;;;;;;4976120;28;20070;-67
2022/11/08 00:19:44;;;;;;;15.57;3.25;;;11.60;99.90;;;;;;4975783;28;20023;-67
2022/11/08 00:22:11;;;;;;;7.13;2.58;;;11.50;99.90;;;;;;4975305;28;20034;-67
2022/11/08 00:24:37;;;;;;;5.93;2.83;;;11.50;99.90;;;;;;4974952;28;20069;-66
2022/11/08 00:27:04;;;;;;;8.13;3.10;;;11.40;99.90;;;;;;4974603;28;20027;-66
2022/11/08 00:29:29;;;;;;;16.23;3.67;;;11.40;99.90;;;;;;4974444;28;20031;-66
2022/11/08 00:31:55;;;;;;;8.75;2.55;;;11.30;99.90;;;;;;4975780;28;20102;-66
2022/11/08 00:34:20;;;;;;;5.70;2.53;;;11.20;99.90;;;;;;4974584;28;20087;-67
2022/11/08 00:36:46;;;;;;;6.45;2.90;;;11.20;99.90;;;;;;4974788;28;20047;-66
2022/11/08 00:39:11;;;;;;;7.97;2.70;;;11.20;99.90;;;;;;4974383;28;20030;-66
2022/11/08 00:41:37;;;;;;;10.40;2.72;;;11.20;99.90;;;;;;4975790;28;20035;-66
2022/11/08 00:44:03;;;;;;;5.60;2.70;;;11.30;99.90;;;;;;4975200;28;20037;-66
2022/11/08 00:46:28;;;;;;;8.80;2.75;;;11.30;99.90;;;;;;4974360;28;20027;-66
2022/11/08 00:48:54;;;;;;;7.82;3.17;;;11.30;99.90;;;;;;4974210;28;20491;-66
2022/11/08 00:51:19;;;;;;;7.82;3.13;;;11.30;99.90;;;;;;4974074;28;20036;-67
2022/11/08 00:53:45;;;;;;;8.70;3.03;;;11.20;99.90;;;;;;4975002;28;20030;-66
2022/11/08 00:56:12;;;;;;;12.18;3.45;;;11.20;99.90;;;;;;4974139;28;20030;-66
2022/11/08 00:58:38;;;;;;;9.60;3.30;;;11.20;99.90;;;;;;4974102;28;20113;-66
2022/11/08 01:01:12;;;;;;;8.75;2.80;;;11.20;99.90;;;;;;4975124;28;20494;-66
2022/11/08 01:03:38;;;;;;;8.82;3.53;;;11.20;99.90;;;;;;4968768;28;20031;-66
2022/11/08 01:06:05;;;;;;;10.38;2.95;;;11.20;99.90;;;;;;4955044;29;20024;-66
2022/11/08 01:08:31;;;;;;;12.75;3.05;;;11.10;99.90;;;;;;4955840;28;20024;-66
2022/11/08 01:11:00;;;;;;;8.85;3.00;;;11.00;99.90;;;;;;4955765;28;20029;-66
2022/11/08 01:13:26;;;;;;;9.20;3.58;;;11.00;99.90;;;;;;4956015;29;20047;-66
2022/11/08 01:15:51;;;;;;;9.20;2.92;;;10.90;99.90;;;;;;4955790;29;20051;-66
2022/11/08 01:18:17;;;;;;;6.32;3.40;;;10.80;99.90;;;;;;4956031;29;20102;-66
2022/11/08 01:20:44;;;;;;;8.98;3.47;;;10.70;99.90;;;;;;4954268;28;20122;-66
2022/11/08 01:23:10;;;;;;;6.13;2.95;;;10.70;99.90;;;;;;4955580;29;20050;-66
2022/11/08 01:25:41;;;;;;;5.47;3.22;;;10.60;99.90;;;;;;4967968;28;20073;-67
2022/11/08 01:28:07;;;;;;;6.90;4.07;;;10.60;99.90;;;;;;4974768;28;20026;-67
2022/11/08 01:30:40;;;;;;;8.75;3.10;;;10.50;99.90;;;;;;4970724;28;20027;-67
2022/11/08 01:33:07;;;;;;;7.50;3.28;;;10.50;99.90;;;;;;4954151;28;20034;-67
2022/11/08 01:35:33;;;;;;;9.50;3.85;;;10.50;99.90;;;;;;4954610;29;20114;-66
2022/11/08 01:37:59;;;;;;;7.53;3.97;;;10.50;99.90;;;;;;4964352;28;20030;-66
2022/11/08 01:40:27;;;;;;;12.75;3.63;;;10.40;99.90;;;;;;4974334;28;20027;-66
2022/11/08 01:42:52;;;;;;;8.95;3.30;;;10.50;99.90;;;;;;4973530;28;20058;-66
2022/11/08 01:45:56;;;;;;;7.00;3.45;;;10.50;99.90;;;;;;4973257;28;20031;-67
2022/11/08 01:48:23;;;;;;;9.02;4.10;;;10.50;99.90;;;;;;4973680;28;20038;-66
2022/11/08 01:50:49;;;;;;;8.10;3.13;;;10.50;99.90;;;;;;4953922;28;20078;-66
2022/11/08 01:53:14;;;;;;;8.30;3.20;;;10.40;99.90;;;;;;4964095;28;20506;-66
2022/11/08 01:55:41;;;;;;;8.63;3.50;;;10.40;99.90;;;;;;4960621;28;20066;-66
2022/11/08 01:58:13;;;;;;;6.28;3.28;;;10.40;99.90;;;;;;4955329;28;20031;-66
2022/11/08 02:00:39;;;;;;;12.65;4.03;;;10.40;99.90;;;;;;4953981;28;20023;-67
2022/11/08 02:03:08;;;;;;;9.48;3.22;;;10.40;99.90;;;;;;4961923;28;20022;-67
2022/11/08 02:05:34;;;;;;;9.02;3.47;;;10.30;99.90;;;;;;4973501;28;20113;-66
2022/11/08 02:07:59;;;;;;;13.38;3.60;;;10.20;99.90;;;;;;4974208;28;20074;-66
2022/11/08 02:10:32;;;;;;;10.18;3.58;;;10.10;99.90;;;;;;4960906;28;20046;-66
2022/11/08 02:12:58;;;;;;;11.05;3.83;;;10.10;99.90;;;;;;4955019;28;20023;-66
2022/11/08 02:15:25;;;;;;;8.77;3.33;;;10.10;99.90;;;;;;4966417;28;20027;-66
2022/11/08 02:17:52;;;;;;;12.63;3.60;;;10.10;99.90;;;;;;4972639;28;20027;-66
2022/11/08 02:20:17;;;;;;;9.35;3.70;;;10.20;99.90;;;;;;4972730;28;20031;-66
2022/11/08 02:22:55;;;;;;;8.77;3.65;;;10.20;99.90;;;;;;4974324;28;20043;-66
2022/11/08 02:25:20;;;;;;;14.25;3.65;;;10.20;99.90;;;;;;4974111;28;20031;-66
2022/11/08 02:27:46;;;;;;;10.57;3.17;;;10.00;99.90;;;;;;4973838;28;20387;-67
2022/11/08 02:30:11;;;;;;;8.07;3.95;;;10.00;99.90;;;;;;4973209;28;20124;-66
2022/11/08 02:32:39;;;;;;;7.20;3.50;;;9.90;99.90;;;;;;4964334;28;20027;-66
2022/11/08 02:35:09;;;;;;;8.68;4.15;;;9.80;99.90;;;;;;4967272;28;20491;-66
2022/11/08 02:37:34;;;;;;;7.25;3.65;;;9.70;99.90;;;;;;4970337;28;20027;-67
2022/11/08 02:40:00;;;;;;;9.55;4.95;;;9.70;99.90;;;;;;4972780;28;20023;-66
2022/11/08 02:42:26;;;;;;;9.10;3.42;;;9.70;99.90;;;;;;4974680;28;20030;-66
2022/11/08 02:44:51;;;;;;;10.63;4.18;;;9.60;99.90;;;;;;4977219;28;20023;-66
2022/11/08 02:47:17;;;;;;;10.68;3.95;;;9.60;99.90;;;;;;4974628;28;20034;-66
2022/11/08 02:49:42;;;;;;;9.20;4.07;;;9.60;99.90;;;;;;4958497;28;20035;-66
2022/11/08 02:52:08;;;;;;;5.75;3.53;;;9.60;99.90;;;;;;4957401;29;20360;-67
2022/11/08 02:54:33;;;;;;;10.00;3.80;;;9.60;99.90;;;;;;4962391;28;20019;-66
2022/11/08 02:56:59;;;;;;;14.48;4.85;;;9.60;99.90;;;;;;4968231;28;20019;-66
2022/11/08 02:59:25;;;;;;;9.75;4.97;;;9.60;99.90;;;;;;4974080;28;20020;-67
2022/11/08 03:01:50;;;;;;;10.50;4.95;;;9.50;99.90;;;;;;4972822;28;20475;-66
2022/11/08 03:04:16;;;;;;;10.63;4.18;;;9.40;99.90;;;;;;4963982;28;20027;-66
2022/11/08 03:06:41;;;;;;;8.82;4.57;;;9.60;99.90;;;;;;4961744;28;20038;-66
2022/11/08 03:09:07;;;;;;;9.43;3.38;;;9.60;99.90;;;;;;4975660;28;20077;-66
2022/11/08 03:11:32;;;;;;;7.25;3.85;;;9.60;99.90;;;;;;4976756;28;20158;-66
2022/11/08 03:13:58;;;;;;;7.30;4.15;;;9.50;99.90;;;;;;4976333;28;20027;-66
2022/11/08 03:16:23;;;;;;;5.90;3.55;;;9.50;99.90;;;;;;4975568;28;20023;-66
2022/11/08 03:18:49;;;;;;;11.63;3.88;;;9.40;99.90;;;;;;4976952;28;20098;-66
2022/11/08 03:21:14;;;;;;;10.88;3.70;;;9.30;99.90;;;;;;4976836;28;20133;-66
2022/11/08 03:23:40;;;;;;;4.70;2.97;;;9.30;99.90;;;;;;4976855;28;20101;-66
2022/11/08 03:26:06;;;;;;;9.65;4.30;;;9.40;99.90;;;;;;4976035;28;20542;-66
2022/11/08 03:28:31;;;;;;;9.93;3.85;;;9.20;99.90;;;;;;4959791;28;20023;-66
2022/11/08 03:30:57;;;;;;;9.43;3.92;;;9.00;99.90;;;;;;4976831;28;20031;-66
2022/11/08 03:33:22;;;;;;;11.13;3.75;;;9.20;99.90;;;;;;4976690;28;20029;-66
2022/11/08 03:35:49;;;;;;;14.82;4.50;;;9.30;99.90;;;;;;4976028;28;20057;-66
2022/11/08 03:38:15;;;;;;;9.68;3.63;;;9.30;99.90;;;;;;4959109;28;20028;-66
2022/11/08 03:40:40;;;;;;;12.30;4.10;;;9.40;99.90;;;;;;4975466;28;20081;-66
2022/11/08 03:43:06;;;;;;;11.15;3.40;;;9.40;99.90;;;;;;4965997;28;20027;-66
2022/11/08 03:45:31;;;;;;;8.70;4.70;;;9.30;99.90;;;;;;4956293;28;20115;-66
2022/11/08 03:47:57;;;;;;;10.77;3.63;;;9.10;99.90;;;;;;4964780;28;20113;-66
2022/11/08 03:50:23;;;;;;;8.73;3.88;;;9.10;99.90;;;;;;4974814;28;20038;-66
2022/11/08 03:52:53;;;;;;;11.90;4.20;;;9.20;99.90;;;;;;4974591;28;20027;-66
2022/11/08 03:55:22;;;;;;;7.13;3.90;;;9.10;99.90;;;;;;4976491;28;20023;-66
2022/11/08 03:57:49;;;;;;;9.23;4.25;;;9.20;99.90;;;;;;4966900;28;20042;-66
2022/11/08 04:00:17;;;;;;;7.97;3.80;;;9.00;99.90;;;;;;4976046;28;20033;-66
2022/11/08 04:02:43;;;;;;;11.65;3.75;;;9.10;99.90;;;;;;4976309;28;20084;-66
2022/11/08 04:05:10;;;;;;;9.98;4.15;;;9.00;99.90;;;;;;4976322;28;20078;-66
2022/11/08 04:07:36;;;;;;;10.15;4.13;;;8.80;99.90;;;;;;4975082;28;20090;-66
2022/11/08 04:10:07;;;;;;;9.68;4.38;;;8.70;99.90;;;;;;4966105;28;20038;-66
2022/11/08 04:15:20;;;;;;;7.85;4.28;;;8.90;99.90;;;;;;4976462;28;20034;-66
2022/11/08 04:23:24;;;;;;;8.27;3.97;;;9.00;99.90;;;;;;4976022;28;20122;-66
2022/11/08 04:25:54;;;;;;;7.43;4.00;;;8.90;99.90;;;;;;4975974;28;20030;-66
2022/11/08 04:28:23;;;;;;;8.40;4.10;;;8.90;99.90;;;;;;4974635;28;20437;-66
2022/11/08 04:30:57;;;;;;;6.35;3.53;;;8.90;99.90;;;;;;4975740;28;20390;-66
2022/11/08 04:33:23;;;;;;;10.85;3.88;;;9.00;99.90;;;;;;4972786;28;20027;-67
2022/11/08 04:35:49;;;;;;;8.85;4.28;;;9.00;99.90;;;;;;4975427;28;20030;-66
2022/11/08 04:38:15;;;;;;;11.50;3.50;;;9.00;99.90;;;;;;4974362;28;20027;-66
2022/11/08 04:40:41;;;;;;;11.73;4.15;;;9.00;99.90;;;;;;4974371;28;20033;-66
2022/11/08 04:43:06;;;;;;;9.75;3.88;;;9.00;99.90;;;;;;4975739;28;20027;-66
2022/11/08 04:45:32;;;;;;;8.07;3.58;;;9.10;99.90;;;;;;4974115;28;20056;-66
2022/11/08 04:47:58;;;;;;;15.98;4.15;;;9.20;99.90;;;;;;4975482;28;20043;-66
2022/11/08 04:50:23;;;;;;;10.35;4.25;;;9.20;99.90;;;;;;4963807;28;20023;-66
2022/11/08 04:52:55;;;;;;;9.90;3.70;;;9.20;99.90;;;;;;4973576;28;20027;-67
2022/11/08 04:55:22;;;;;;;10.35;4.03;;;9.20;99.90;;;;;;4971241;28;20065;-66
2022/11/08 04:57:48;;;;;;;8.35;3.78;;;9.10;99.90;;;;;;4955904;29;20075;-66
2022/11/08 05:00:15;;;;;;;9.68;4.28;;;9.10;99.90;;;;;;4955800;28;20024;-66
2022/11/08 05:02:41;;;;;;;6.60;3.45;;;9.10;99.90;;;;;;4966678;28;20389;-66
2022/11/08 05:05:07;;;;;;;14.65;4.55;;;9.20;99.90;;;;;;4961753;28;20028;-66
2022/11/08 05:07:33;;;;;;;12.52;4.10;;;9.00;99.90;;;;;;4956341;28;20034;-66
2022/11/08 05:09:58;;;;;;;10.10;3.35;;;8.90;99.90;;;;;;4954645;28;20027;-66
2022/11/08 05:12:24;;;;;;;9.30;3.97;;;8.90;99.90;;;;;;4955344;28;20019;-67
2022/11/08 05:14:49;;;;;;;7.00;3.30;;;8.80;99.90;;;;;;4973858;28;20030;-66
2022/11/08 05:17:15;;;;;;;9.10;3.72;;;8.70;99.90;;;;;;4967636;28;20019;-66
2022/11/08 05:25:09;;;;;;;12.52;5.07;;;8.90;99.90;;;;;;4964095;28;20078;-68
2022/11/08 05:27:35;;;;;;;7.80;4.13;;;9.00;99.90;;;;;;4957553;28;20022;-68
2022/11/08 05:30:01;;;;;;;10.65;4.50;;;9.10;99.90;;;;;;4960348;28;20033;-68
2022/11/08 05:32:26;;;;;;;7.95;3.67;;;9.10;99.90;;;;;;4955358;28;20035;-68
2022/11/08 05:34:52;;;;;;;10.13;4.30;;;9.10;99.90;;;;;;4957327;28;20521;-68
2022/11/08 05:37:17;;;;;;;7.45;4.35;;;9.10;99.90;;;;;;4974606;28;20081;-68
2022/11/08 05:39:43;;;;;;;8.55;4.10;;;9.10;99.90;;;;;;4957208;28;20023;-68
2022/11/08 05:42:12;;;;;;;6.68;4.18;;;9.10;99.90;;;;;;4955855;28;20050;-68
2022/11/08 05:44:38;;;;;;;9.80;4.82;;;9.00;99.90;;;;;;4957290;28;20019;-68
2022/11/08 05:47:03;;;;;;;11.50;4.53;;;9.00;99.90;;;;;;4954040;28;20486;-68
2022/11/08 05:49:29;;;;;;;11.38;4.30;;;8.70;99.90;;;;;;4962799;28;20026;-68
2022/11/08 05:51:54;;;;;;;8.27;4.55;;;8.70;99.90;;;;;;4970034;28;20110;-68
2022/11/08 05:54:20;;;;;;;12.65;4.60;;;8.70;99.90;;;;;;4948408;29;20046;-68
2022/11/08 05:56:45;;;;;;;13.20;4.63;;;8.60;99.90;;;;;;4955275;28;20031;-68
2022/11/08 05:59:11;;;;;;;12.38;4.72;;;8.50;99.90;;;;;;4942673;28;20022;-68
2022/11/08 06:01:36;;;;;;;13.30;5.57;;;8.60;99.90;;;;;;4974256;28;20101;-68
2022/11/08 06:04:02;;;;;;;12.70;5.68;;;8.70;99.90;;;;;;4945939;29;20027;-68
2022/11/08 06:06:27;;;;;;;9.75;5.43;;;8.60;99.90;;;;;;4953641;28;20548;-68
2022/11/08 06:08:53;;;;;;;10.10;4.68;;;8.60;99.90;;;;;;4938341;29;20079;-68
2022/11/08 06:11:23;;;;;;;12.82;4.40;;;8.50;99.90;;;;;;4937912;28;20027;-68
2022/11/08 06:13:49;;;;;;;6.78;4.28;;;8.40;99.90;;;;;;4937995;29;20051;-68
2022/11/08 06:16:17;;;;;;;7.70;4.68;;;8.40;99.90;;;;;;4941309;28;20026;-68
2022/11/08 06:18:42;;;;;;;16.75;4.60;;;8.30;99.90;;;;;;4954503;29;20023;-68
2022/11/08 06:21:11;;;;;;;10.75;4.50;;;8.40;99.90;;;;;;4963085;28;20034;-68
2022/11/08 06:23:37;;;;;;;11.32;4.95;;;8.50;99.90;;;;;;4968146;28;20557;-68
2022/11/08 06:26:03;;;;;;;14.57;5.03;;;8.70;99.90;;;;;;4942211;29;20023;-68
2022/11/08 06:28:29;;;;;;;10.80;4.63;;;8.80;99.90;;;;;;4975743;28;20084;-68
2022/11/08 06:30:57;;;;;;;23.80;5.82;;;8.90;99.90;;;;;;4960740;28;20019;-68
2022/11/08 06:33:24;;;;;;;12.98;5.22;;;8.80;99.90;;;;;;4977807;28;20049;-68
2022/11/08 06:35:49;;;;;;;8.23;4.38;;;8.70;99.90;;;;;;4954152;29;20054;-68
2022/11/08 06:38:15;;;;;;;12.30;4.53;;;8.60;99.90;;;;;;4952232;28;20082;-68
2022/11/08 06:40:41;;;;;;;9.95;4.80;;;8.60;99.90;;;;;;4960102;28;20033;-68
2022/11/08 06:43:08;;;;;;;9.23;4.32;;;8.70;99.90;;;;;;4946065;29;20034;-68
2022/11/08 06:45:36;;;;;;;16.30;5.25;;;8.70;99.90;;;;;;4959212;28;20023;-68
2022/11/08 06:48:03;;;;;;;12.60;5.25;;;8.60;99.90;;;;;;4977198;28;20082;-68
2022/11/08 06:50:31;;;;;;;11.13;5.05;;;8.70;99.90;;;;;;4959819;28;20054;-68
2022/11/08 06:52:59;;;;;;;18.65;5.03;;;8.70;99.90;;;;;;4959924;28;20035;-68
2022/11/08 06:55:25;;;;;;;9.73;4.18;;;8.70;99.90;;;;;;4958936;28;20054;-68
2022/11/08 06:57:51;;;;;;;8.50;4.53;;;8.80;99.90;;;;;;4955941;29;20026;-68
2022/11/08 07:00:17;;;;;;;8.05;3.83;;;8.90;99.90;;;;;;4947501;28;20034;-68
2022/11/08 07:02:43;;;;;;;7.63;3.40;;;9.00;99.90;;;;;;4959691;28;20118;-68
2022/11/08 07:05:10;;;;;;;6.80;3.38;;;9.00;99.90;;;;;;4959245;28;20117;-68
2022/11/08 07:07:36;;;;;;;6.50;3.35;;;9.10;99.90;;;;;;4959801;28;20042;-68
2022/11/08 07:10:01;;;;;;;8.60;3.72;;;9.20;99.90;;;;;;4948391;29;20031;-68
2022/11/08 07:12:27;;;;;;;10.05;3.33;;;9.30;99.90;;;;;;4959098;28;20041;-68
2022/11/08 07:14:52;;;;;;;8.50;3.40;;;9.40;99.90;;;;;;4959135;28;20023;-68
2022/11/08 07:17:18;;;;;;;7.38;3.63;;;9.40;99.90;;;;;;4976369;28;20035;-68
2022/11/08 07:19:43;;;;;;;5.80;3.30;;;9.50;99.90;;;;;;4959279;28;20122;-68
2022/11/08 07:22:09;;;;;;;7.20;3.25;;;9.50;99.90;;;;;;4952669;28;20058;-68
2022/11/08 07:24:34;;;;;;;7.40;2.95;;;9.60;99.90;;;;;;4959480;28;20022;-68
2022/11/08 07:27:00;;;;;;;12.60;3.10;;;9.60;99.90;;;;;;4976584;28;20022;-67
2022/11/08 07:29:25;;;;;;;8.98;4.07;;;9.60;99.90;;;;;;4975388;28;20561;-67
2022/11/08 07:31:51;;;;;;;8.70;3.03;;;9.60;99.90;;;;;;4958736;28;20035;-67
2022/11/08 07:34:16;;;;;;;6.30;3.33;;;9.50;99.90;;;;;;4959135;28;20065;-67
2022/11/08 07:36:42;;;;;;;6.88;2.58;;;9.50;99.90;;;;;;4976125;28;20039;-68
2022/11/08 07:39:08;;;;;;;6.50;3.42;;;9.40;99.90;;;;;;4941690;29;20118;-68
2022/11/08 07:41:33;;;;;;;7.30;3.13;;;9.40;99.90;;;;;;4949394;28;20039;-68
2022/11/08 07:43:59;;;;;;;9.43;2.70;;;9.50;99.90;;;;;;4958832;28;20030;-68
2022/11/08 07:46:24;;;;;;;7.80;2.60;;;9.60;99.90;;;;;;4975661;28;20166;-68
2022/11/08 07:48:50;;;;;;;7.38;2.55;;;9.60;99.90;;;;;;4958036;28;20074;-68
2022/11/08 07:51:15;;;;;;;4.90;2.72;;;9.50;99.90;;;;;;4958250;28;20069;-68
2022/11/08 07:53:42;;;;;;;5.00;2.80;;;9.50;99.90;;;;;;4976713;28;20019;-68
2022/11/08 07:56:08;;;;;;;6.85;2.90;;;9.50;99.90;;;;;;4958676;28;20031;-68
2022/11/08 07:58:34;;;;;;;6.00;2.38;;;9.70;99.90;;;;;;4954153;28;20117;-67
2022/11/08 08:01:02;;;;;;;9.10;2.97;;;9.90;99.90;;;;;;4955095;28;20019;-68
2022/11/08 08:03:28;;;;;;;7.15;2.55;;;9.90;99.90;;;;;;4976024;28;20023;-68
2022/11/08 08:05:53;;;;;;;4.78;2.40;;;10.00;99.90;;;;;;4958428;28;20027;-68
2022/11/08 08:08:19;;;;;;;9.25;2.70;;;10.10;99.90;;;;;;4958291;28;20082;-68
2022/11/08 08:10:45;;;;;;;4.30;2.40;;;10.00;99.90;;;;;;4959249;28;20030;-68
2022/11/08 08:13:11;;;;;;;4.15;2.00;;;10.10;99.90;;;;;;4958946;28;20023;-68
2022/11/08 08:15:36;;;;;;;7.40;2.50;;;10.20;99.90;;;;;;4958850;28;20035;-68
2022/11/08 08:18:03;;;;;;;8.43;2.60;;;10.20;99.90;;;;;;4957422;28;20114;-68
2022/11/08 08:20:30;;;;;;;6.65;2.97;;;10.40;99.90;;;;;;4958900;28;20023;-68
2022/11/08 08:22:57;;;;;;;7.35;2.30;;;10.40;99.90;;;;;;4957820;28;20046;-68
2022/11/08 08:25:24;;;;;;;10.65;2.42;;;10.30;99.90;;;;;;4957576;28;20034;-68
2022/11/08 08:27:54;;;;;;;6.03;2.60;;;10.30;99.90;;;;;;4958462;28;20026;-68
2022/11/08 08:30:21;;;;;;;7.88;2.53;;;10.30;99.90;;;;;;4957496;28;20030;-68
2022/11/08 08:32:47;;;;;;;6.50;2.60;;;10.40;99.90;;;;;;4975128;28;20030;-68
2022/11/08 08:35:13;;;;;;;5.03;2.45;;;10.50;99.90;;;;;;4975182;28;20039;-68
2022/11/08 08:37:39;;;;;;;4.60;2.08;;;10.50;99.90;;;;;;4958710;28;20026;-68
2022/11/08 08:40:05;;;;;;;5.97;2.53;;;10.50;99.90;;;;;;4976064;28;20027;-68
2022/11/08 08:42:35;;;;;;;4.65;2.10;;;10.60;99.90;;;;;;4975652;28;20055;-68
2022/11/08 08:45:01;;;;;;;4.88;1.77;;;10.60;99.90;;;;;;4975670;28;20027;-68
2022/11/08 08:47:27;;;;;;;3.10;2.08;;;10.70;99.90;;;;;;4975851;28;20037;-68
2022/11/08 08:49:53;;;;;;;6.43;2.63;;;10.80;99.90;;;;;;4975565;28;20023;-68
2022/11/08 08:52:18;;;;;;;7.22;2.40;;;10.80;99.90;;;;;;4958018;28;20037;-68
2022/11/08 08:54:44;;;;;;;7.93;2.42;;;10.90;99.90;;;;;;4958487;28;20026;-68
2022/11/08 08:57:09;;;;;;;5.65;2.20;;;11.00;99.90;;;;;;4975749;28;20031;-68
2022/11/08 08:59:35;;;;;;;6.65;2.08;;;11.10;99.90;;;;;;4975435;28;20027;-68
2022/11/08 09:02:00;;;;;;;8.98;2.08;;;11.30;99.90;;;;;;4957940;28;20022;-68
2022/11/08 09:04:27;;;;;;;4.07;1.92;;;11.30;99.90;;;;;;4958271;28;20050;-68
2022/11/08 09:06:53;;;;;;;4.50;1.92;;;11.40;99.90;;;;;;4958773;28;20038;-68
2022/11/08 09:09:18;;;;;;;4.45;1.70;;;11.40;99.90;;;;;;4975194;28;20030;-68
2022/11/08 09:11:44;;;;;;;7.55;2.83;;;11.50;99.90;;;;;;4975376;28;20023;-68
2022/11/08 09:14:09;;;;;;;8.23;1.90;;;11.50;99.90;;;;;;4957804;28;20027;-68
2022/11/08 09:16:35;;;;;;;3.28;2.00;;;11.70;99.90;;;;;;4958869;28;20023;-68
2022/11/08 09:19:00;;;;;;;8.40;1.65;;;11.90;99.90;;;;;;4975116;28;20082;-68
2022/11/08 09:21:26;;;;;;;4.72;2.00;;;11.90;99.90;;;;;;4958359;28;20035;-68
2022/11/08 09:23:51;;;;;;;6.85;2.00;;;12.00;99.90;;;;;;4957868;28;20026;-68
2022/11/08 09:26:17;;;;;;;4.55;2.30;;;12.20;99.90;;;;;;4975344;28;20030;-68
2022/11/08 09:28:43;;;;;;;4.35;2.10;;;12.30;99.90;;;;;;4957747;28;20027;-68
2022/11/08 09:31:10;;;;;;;4.82;1.70;;;12.40;99.90;;;;;;4974805;28;20031;-68
2022/11/08 09:33:38;;;;;;;5.28;1.90;;;12.60;99.90;;;;;;4957670;28;20037;-68
2022/11/08 09:36:04;;;;;;;7.45;1.92;;;12.70;99.90;;;;;;4957564;28;20045;-68
2022/11/08 09:38:30;;;;;;;3.15;1.92;;;12.80;99.90;;;;;;4957482;28;20081;-68
2022/11/08 09:41:05;;;;;;;4.05;1.88;;;12.80;99.90;;;;;;4958558;28;20046;-68
2022/11/08 09:43:36;;;;;;;4.50;2.00;;;12.90;99.90;;;;;;4974653;28;20094;-68
2022/11/08 09:46:01;;;;;;;6.80;2.15;;;13.00;99.90;;;;;;4957284;28;20537;-68
2022/11/08 09:48:33;;;;;;;4.35;1.65;;;13.00;99.90;;;;;;4974884;28;20115;-68
2022/11/08 09:51:04;;;;;;;4.60;1.77;;;12.90;99.90;;;;;;4956959;28;20027;-68
2022/11/08 09:53:44;;;;;;;4.57;2.10;;;13.00;99.90;;;;;;4957598;28;20030;-68
2022/11/08 09:56:24;;;;;;;5.22;1.88;;;13.00;99.90;;;;;;4958317;28;20109;-68
2022/11/08 09:59:02;;;;;;;5.38;1.90;;;13.10;99.90;;;;;;4974597;28;20023;-68
2022/11/08 10:01:33;;;;;;;7.20;1.65;;;13.30;99.90;;;;;;4974586;28;20073;-68
2022/11/08 10:04:04;;;;;;;3.60;1.80;;;13.50;99.90;;;;;;4957211;28;20031;-68
2022/11/08 10:06:32;;;;;;;3.10;1.98;;;13.70;99.90;;;;;;4957365;28;20038;-68
2022/11/08 10:09:19;;;;;;;3.70;1.80;;;13.80;99.90;;;;;;4974450;28;20027;-68
2022/11/08 10:11:54;;;;;;;4.43;1.75;;;13.80;99.90;;;;;;4957082;28;20034;-68
2022/11/08 10:14:35;;;;;;;6.40;1.83;;;13.70;99.90;;;;;;4974408;28;20474;-68
2022/11/08 10:17:31;;;;;;;6.60;1.77;;;14.00;99.90;;;;;;4958014;28;20027;-68
2022/11/08 10:20:21;;;;;;;7.53;1.85;;;13.90;99.90;;;;;;4957918;28;20027;-68
2022/11/08 10:23:01;;;;;;;6.43;1.67;;;13.80;99.90;;;;;;4957020;28;20055;-68
2022/11/08 10:25:43;;;;;;;3.72;2.17;;;13.90;99.90;;;;;;4957949;28;20030;-68
2022/11/08 10:28:14;;;;;;;6.82;2.65;;;13.60;99.90;;;;;;4957027;28;20023;-68
2022/11/08 10:30:43;;;;;;;4.17;1.50;;;13.50;99.90;;;;;;4957289;28;20031;-68
2022/11/08 10:33:30;;;;;;;6.00;2.15;;;13.40;99.90;;;;;;4974101;28;20059;-68
2022/11/08 10:36:00;;;;;;;5.78;1.90;;;13.20;99.90;;;;;;4974432;28;20030;-68
2022/11/08 10:38:34;;;;;;;4.68;2.00;;;13.30;99.90;;;;;;4974280;28;20019;-68
2022/11/08 10:41:18;;;;;;;5.70;2.03;;;13.50;99.90;;;;;;4957339;28;20057;-68
2022/11/08 10:43:50;;;;;;;2.10;1.48;;;13.70;99.90;;;;;;4974515;28;20025;-68
2022/11/08 10:46:40;;;;;;;3.60;1.90;;;13.70;99.90;;;;;;4957953;28;20023;-68
2022/11/08 10:49:33;;;;;;;3.38;1.70;;;14.20;99.90;;;;;;4944795;28;20069;-68
2022/11/08 10:52:17;;;;;;;2.58;1.60;;;14.40;99.90;;;;;;4957360;28;20031;-68
2022/11/08 10:54:47;;;;;;;6.90;1.50;;;14.30;99.90;;;;;;4957977;28;20023;-68
2022/11/08 10:57:14;;;;;;;4.80;2.05;;;14.00;99.90;;;;;;4956662;28;20094;-68
2022/11/08 10:59:41;;;;;;;2.92;1.40;;;14.10;99.90;;;;;;4974052;28;20023;-68
2022/11/08 11:02:25;;;;;;;5.32;1.85;;;14.00;99.90;;;;;;4956355;28;20041;-68
2022/11/08 11:04:52;;;;;;;4.38;1.92;;;14.10;99.90;;;;;;4959707;28;20027;-68
2022/11/08 11:07:36;;;;;;;3.38;1.75;;;14.20;99.90;;;;;;4977260;28;20082;-68
2022/11/08 11:10:21;;;;;;;3.63;2.03;;;14.30;99.90;;;;;;4960289;28;20023;-68
2022/11/08 11:13:01;;;;;;;5.78;1.40;;;14.30;99.90;;;;;;4959993;28;20121;-68
2022/11/08 11:15:35;;;;;;;4.90;2.08;;;14.40;99.90;;;;;;4977487;28;20027;-68
2022/11/08 11:18:02;;;;;;;2.83;1.75;;;14.60;99.90;;;;;;4977331;28;20019;-68
2022/11/08 11:20:28;;;;;;;7.30;1.90;;;14.70;99.90;;;;;;4960121;28;20113;-68
2022/11/08 11:22:53;;;;;;;5.22;2.35;;;14.60;99.90;;;;;;4977707;28;20117;-68
2022/11/08 11:25:23;;;;;;;3.40;1.75;;;14.50;99.90;;;;;;4960282;28;20027;-68
2022/11/08 11:27:59;;;;;;;3.80;2.13;;;14.50;99.90;;;;;;4959675;28;20030;-68
2022/11/08 11:30:33;;;;;;;6.10;2.40;;;14.70;99.90;;;;;;4959683;28;20557;-68
2022/11/08 11:33:23;;;;;;;5.47;2.25;;;14.70;99.90;;;;;;4959728;28;20027;-68
2022/11/08 11:35:54;;;;;;;5.65;1.95;;;14.80;99.90;;;;;;4977082;28;20050;-69
2022/11/08 11:38:44;;;;;;;3.70;2.00;;;14.80;99.90;;;;;;4960193;28;20023;-69
2022/11/08 11:41:17;;;;;;;4.50;2.17;;;15.10;99.90;;;;;;4977115;28;20098;-69
2022/11/08 11:43:56;;;;;;;3.50;2.20;;;15.00;99.90;;;;;;4976871;28;20023;-68
2022/11/08 11:46:52;;;;;;;4.53;2.50;;;14.90;99.90;;;;;;4977061;28;20034;-68
2022/11/08 11:49:22;;;;;;;6.05;2.20;;;14.70;99.90;;;;;;4960243;28;20023;-68
2022/11/08 11:51:52;;;;;;;4.03;2.53;;;14.80;99.90;;;;;;4959406;28;20143;-68
2022/11/08 11:54:18;;;;;;;5.82;2.40;;;14.90;99.90;;;;;;4960189;28;20037;-68
2022/11/08 11:57:15;;;;;;;2.67;2.20;;;14.80;99.90;;;;;;4959333;28;20023;-70
2022/11/08 12:00:03;;;;;;;7.28;2.30;;;14.70;99.90;;;;;;4959578;28;20047;-69
2022/11/08 12:02:38;;;;;;;5.22;2.03;;;14.60;99.90;;;;;;4959042;28;20023;-69
2022/11/08 12:05:28;;;;;;;4.40;2.50;;;14.60;99.90;;;;;;4958974;28;20078;-70
2022/11/08 12:08:08;;;;;;;4.57;2.83;;;14.70;99.90;;;;;;4959043;28;20379;-69
2022/11/08 12:10:58;;;;;;;4.93;2.63;;;14.40;99.90;;;;;;4958974;28;20027;-69
2022/11/08 12:13:42;;;;;;;6.95;2.75;;;14.00;99.90;;;;;;4958698;28;20026;-69
2022/11/08 12:16:42;;;;;;;3.17;1.88;;;13.80;99.90;;;;;;4976278;28;20077;-68
2022/11/08 12:19:22;;;;;;;7.82;2.60;;;14.00;99.90;;;;;;4976471;28;20054;-68
2022/11/08 12:22:09;;;;;;;6.68;2.58;;;14.10;99.90;;;;;;4958571;28;20031;-69
2022/11/08 12:24:49;;;;;;;5.22;1.90;;;14.10;99.90;;;;;;4958696;28;20027;-68
2022/11/08 12:27:14;;;;;;;6.80;2.28;;;14.10;99.90;;;;;;4958859;28;20026;-68
2022/11/08 12:30:03;;;;;;;4.55;2.35;;;14.00;99.90;;;;;;4959289;28;20027;-68
2022/11/08 12:32:57;;;;;;;5.68;2.22;;;14.00;99.90;;;;;;4963049;28;20103;-68
2022/11/08 12:35:47;;;;;;;5.43;2.10;;;14.00;99.90;;;;;;4958585;28;20031;-68
2022/11/08 12:38:30;;;;;;;4.82;1.88;;;14.10;99.90;;;;;;4959592;28;20031;-68
2022/11/08 12:41:05;;;;;;;3.55;2.20;;;13.90;99.90;;;;;;4958534;28;20026;-68
2022/11/08 12:43:39;;;;;;;6.18;3.38;;;13.90;99.90;;;;;;4976471;28;20058;-68
2022/11/08 12:46:17;;;;;;;5.72;2.47;;;14.00;99.90;;;;;;4959430;28;20026;-67
2022/11/08 12:49:25;;;;;;;4.20;2.17;;;14.00;99.90;;;;;;4959050;28;20162;-68
2022/11/08 12:52:14;;;;;;;3.00;1.98;;;14.10;99.90;;;;;;4958142;28;20035;-68
2022/11/08 12:55:02;;;;;;;3.15;2.58;;;14.30;99.90;;;;;;4958957;28;20023;-68
2022/11/08 12:57:29;;;;;;;6.28;2.20;;;14.20;99.90;;;;;;4958065;28;20030;-68
2022/11/08 13:00:05;;;;;;;5.35;2.10;;;14.10;99.90;;;;;;4975602;28;20107;-68
2022/11/08 13:02:36;;;;;;;6.82;2.03;;;14.10;99.90;;;;;;4975490;28;20078;-68
2022/11/08 13:05:25;;;;;;;6.30;2.33;;;14.10;99.90;;;;;;4957800;28;20030;-68
2022/11/08 13:08:16;;;;;;;5.05;2.38;;;14.10;99.90;;;;;;4957684;28;20390;-68
2022/11/08 13:11:06;;;;;;;6.88;2.35;;;14.10;99.90;;;;;;4958805;28;20023;-68
2022/11/08 13:13:48;;;;;;;6.95;2.38;;;14.20;99.90;;;;;;4974773;28;20042;-68
2022/11/08 13:16:23;;;;;;;3.80;2.33;;;14.40;99.90;;;;;;4975207;28;20055;-68
2022/11/08 13:19:00;;;;;;;4.20;1.80;;;14.30;99.90;;;;;;4959323;28;20018;-68
2022/11/08 13:21:28;;;;;;;7.18;2.30;;;14.20;99.90;;;;;;4958456;28;20023;-68
2022/11/08 13:24:00;;;;;;;5.72;2.08;;;14.10;99.90;;;;;;4958182;28;20044;-68